sensor_id;sensor_type;location;lat;lon;timestamp;temperature;humidity
18807;DHT22;9531;52.030;4.380;2023-03-23T00:01:01;11.60;99.90
18807;DHT22;9531;52.030;4.380;2023-03-23T00:03:28;11.60;99.90
18807;DHT22;9531;52.030;4.380;2023-03-23T00:05:58;11.60;99.90
18807;DHT22;9531;52.030;4.380;2023-03-23T00:08:31;11.60;99.90
18807;DHT22;9531;52.030;4.380;2023-03-23T00:11:00;11.60;99.90
18807;DHT22;9531;52.030;4.380;2023-03-23T00:13:28;11.60;99.90
18807;DHT22;9531;52.030;4.380;2023-03-23T00:15:55;11.60;99.90
18807;DHT22;9531;52.030;4.380;2023-03-23T00:18:27;11.60;99.90
18807;DHT22;9531;52.030;4.380;2023-03-23T00:20:56;11.60;99.90
18807;DHT22;9531;52.030;4.380;2023-03-23T00:23:25;11.60;99.90
18807;DHT22;9531;52.030;4.380;2023-03-23T00:25:55;11.60;99.90
18807;DHT22;9531;52.030;4.380;2023-03-23T00:28:23;11.60;99.90
18807;DHT22;9531;52.030;4.380;2023-03-23T00:30:56;11.60;99.90
18807;DHT22;9531;52.030;4.380;2023-03-23T00:33:23;11.60;99.90
18807;DHT22;9531;52.030;4.380;2023-03-23T00:35:53;11.60;99.90
18807;DHT22;9531;52.030;4.380;2023-03-23T00:38:20;11.60;99.90
18807;DHT22;9531;52.030;4.380;2023-03-23T00:40:48;11.60;99.90
18807;DHT22;9531;52.030;4.380;2023-03-23T00:43:15;11.60;99.90
18807;DHT22;9531;52.030;4.380;2023-03-23T00:45:43;11.60;99.90
18807;DHT22;9531;52.030;4.380;2023-03-23T00:48:18;11.60;99.90
18807;DHT22;9531;52.030;4.380;2023-03-23T00:50:46;11.60;99.90
18807;DHT22;9531;52.030;4.380;2023-03-23T00:53:15;11.60;99.90
18807;DHT22;9531;52.030;4.380;2023-03-23T00:55:44;11.60;99.90
18807;DHT22;9531;52.030;4.380;2023-03-23T00:58:12;11.60;99.90
18807;DHT22;9531;52.030;4.380;2023-03-23T01:00:40;11.50;99.90
18807;DHT22;9531;52.030;4.380;2023-03-23T01:03:09;11.50;99.90
18807;DHT22;9531;52.030;4.380;2023-03-23T01:05:38;11.50;99.90
18807;DHT22;9531;52.030;4.380;2023-03-23T01:08:06;11.50;99.90
18807;DHT22;9531;52.030;4.380;2023-03-23T01:10:35;11.50;99.90
18807;DHT22;9531;52.030;4.380;2023-03-23T01:13:04;11.50;99.90
18807;DHT22;9531;52.030;4.380;2023-03-23T01:15:32;11.50;99.90
18807;DHT22;9531;52.030;4.380;2023-03-23T01:17:59;11.50;99.90
18807;DHT22;9531;52.030;4.380;2023-03-23T01:20:26;11.50;99.90
18807;DHT22;9531;52.030;4.380;2023-03-23T01:22:54;11.50;99.90
18807;DHT22;9531;52.030;4.380;2023-03-23T01:25:27;11.50;99.90
18807;DHT22;9531;52.030;4.380;2023-03-23T01:27:57;11.50;99.90
18807;DHT22;9531;52.030;4.380;2023-03-23T01:30:25;11.50;99.90
18807;DHT22;9531;52.030;4.380;2023-03-23T01:32:53;11.50;99.90
18807;DHT22;9531;52.030;4.380;2023-03-23T01:35:21;11.50;99.90
18807;DHT22;9531;52.030;4.380;2023-03-23T01:37:48;11.50;99.90
18807;DHT22;9531;52.030;4.380;2023-03-23T01:40:16;11.50;99.90
18807;DHT22;9531;52.030;4.380;2023-03-23T01:42:42;11.50;99.90
18807;DHT22;9531;52.030;4.380;2023-03-23T01:45:31;11.50;99.90
18807;DHT22;9531;52.030;4.380;2023-03-23T01:48:11;11.50;99.90
18807;DHT22;9531;52.030;4.380;2023-03-23T01:50:45;11.50;99.90
18807;DHT22;9531;52.030;4.380;2023-03-23T01:53:14;11.60;99.90
18807;DHT22;9531;52.030;4.380;2023-03-23T01:55:43;11.60;99.90
18807;DHT22;9531;52.030;4.380;2023-03-23T01:58:16;11.60;99.90
18807;DHT22;9531;52.030;4.380;2023-03-23T02:00:45;11.60;99.90
18807;DHT22;9531;52.030;4.380;2023-03-23T02:03:14;11.60;99.90
18807;DHT22;9531;52.030;4.380;2023-03-23T02:05:43;11.60;99.90
18807;DHT22;9531;52.030;4.380;2023-03-23T02:08:11;11.60;99.90
18807;DHT22;9531;52.030;4.380;2023-03-23T02:10:39;11.60;99.90
18807;DHT22;9531;52.030;4.380;2023-03-23T02:13:08;11.50;99.90
18807;DHT22;9531;52.030;4.380;2023-03-23T02:15:51;11.50;99.90
18807;DHT22;9531;52.030;4.380;2023-03-23T02:18:41;11.50;99.90
18807;DHT22;9531;52.030;4.380;2023-03-23T02:21:39;11.50;99.90
18807;DHT22;9531;52.030;4.380;2023-03-23T02:24:56;11.50;99.90
18807;DHT22;9531;52.030;4.380;2023-03-23T02:28:00;11.50;99.90
18807;DHT22;9531;52.030;4.380;2023-03-23T02:30:43;11.50;99.90
18807;DHT22;9531;52.030;4.380;2023-03-23T02:33:38;11.50;99.90
18807;DHT22;9531;52.030;4.380;2023-03-23T02:36:13;11.50;99.90
18807;DHT22;9531;52.030;4.380;2023-03-23T02:38:46;11.60;99.90
18807;DHT22;9531;52.030;4.380;2023-03-23T02:41:18;11.60;99.90
18807;DHT22;9531;52.030;4.380;2023-03-23T02:43:46;11.50;99.90
18807;DHT22;9531;52.030;4.380;2023-03-23T02:46:15;11.60;99.90
18807;DHT22;9531;52.030;4.380;2023-03-23T02:48:46;11.60;99.90
18807;DHT22;9531;52.030;4.380;2023-03-23T02:51:18;11.60;99.90
18807;DHT22;9531;52.030;4.380;2023-03-23T02:53:46;11.60;99.90
18807;DHT22;9531;52.030;4.380;2023-03-23T02:56:15;11.60;99.90
18807;DHT22;9531;52.030;4.380;2023-03-23T02:58:43;11.60;99.90
18807;DHT22;9531;52.030;4.380;2023-03-23T03:01:45;11.50;99.90
18807;DHT22;9531;52.030;4.380;2023-03-23T03:04:07;11.50;99.90
18807;DHT22;9531;52.030;4.380;2023-03-23T03:06:43;11.50;99.90
18807;DHT22;9531;52.030;4.380;2023-03-23T03:09:20;11.50;99.90
18807;DHT22;9531;52.030;4.380;2023-03-23T03:11:50;11.50;99.90
18807;DHT22;9531;52.030;4.380;2023-03-23T03:14:22;11.50;99.90
18807;DHT22;9531;52.030;4.380;2023-03-23T03:16:56;11.50;99.90
18807;DHT22;9531;52.030;4.380;2023-03-23T03:19:29;11.50;99.90
18807;DHT22;9531;52.030;4.380;2023-03-23T03:21:58;11.50;99.90
18807;DHT22;9531;52.030;4.380;2023-03-23T03:24:28;11.50;99.90
18807;DHT22;9531;52.030;4.380;2023-03-23T03:26:58;11.40;99.90
18807;DHT22;9531;52.030;4.380;2023-03-23T03:29:29;11.40;99.90
18807;DHT22;9531;52.030;4.380;2023-03-23T03:31:58;11.40;99.90
18807;DHT22;9531;52.030;4.380;2023-03-23T03:34:28;11.30;99.90
18807;DHT22;9531;52.030;4.380;2023-03-23T03:36:59;11.30;1.00
18807;DHT22;9531;52.030;4.380;2023-03-23T03:39:27;11.30;1.00
18807;DHT22;9531;52.030;4.380;2023-03-23T03:41:55;11.20;1.00
18807;DHT22;9531;52.030;4.380;2023-03-23T03:44:22;11.20;1.00
18807;DHT22;9531;52.030;4.380;2023-03-23T03:46:49;11.20;1.00
18807;DHT22;9531;52.030;4.380;2023-03-23T03:49:15;11.20;1.00
18807;DHT22;9531;52.030;4.380;2023-03-23T03:51:44;11.20;1.00
18807;DHT22;9531;52.030;4.380;2023-03-23T03:54:11;11.10;1.00
18807;DHT22;9531;52.030;4.380;2023-03-23T03:56:38;11.10;1.00
18807;DHT22;9531;52.030;4.380;2023-03-23T03:59:06;11.10;1.00
18807;DHT22;9531;52.030;4.380;2023-03-23T04:01:36;11.10;1.00
18807;DHT22;9531;52.030;4.380;2023-03-23T04:04:03;11.10;1.00
18807;DHT22;9531;52.030;4.380;2023-03-23T04:06:32;11.10;1.00
18807;DHT22;9531;52.030;4.380;2023-03-23T04:09:04;11.10;1.00
18807;DHT22;9531;52.030;4.380;2023-03-23T04:11:34;11.10;1.00
18807;DHT22;9531;52.030;4.380;2023-03-23T04:14:01;11.00;1.00
18807;DHT22;9531;52.030;4.380;2023-03-23T04:16:28;11.00;1.00
18807;DHT22;9531;52.030;4.380;2023-03-23T04:18:56;11.00;1.00
18807;DHT22;9531;52.030;4.380;2023-03-23T04:21:23;11.00;1.00
18807;DHT22;9531;52.030;4.380;2023-03-23T04:23:54;11.00;1.00
18807;DHT22;9531;52.030;4.380;2023-03-23T04:26:26;11.00;1.00
18807;DHT22;9531;52.030;4.380;2023-03-23T04:28:54;11.00;1.00
18807;DHT22;9531;52.030;4.380;2023-03-23T04:31:22;11.00;1.00
18807;DHT22;9531;52.030;4.380;2023-03-23T04:33:51;11.00;1.00
18807;DHT22;9531;52.030;4.380;2023-03-23T04:36:19;11.00;1.00
18807;DHT22;9531;52.030;4.380;2023-03-23T04:38:48;10.90;1.00
18807;DHT22;9531;52.030;4.380;2023-03-23T04:41:20;10.90;1.00
18807;DHT22;9531;52.030;4.380;2023-03-23T04:43:48;10.90;1.00
18807;DHT22;9531;52.030;4.380;2023-03-23T04:46:18;10.90;1.00
18807;DHT22;9531;52.030;4.380;2023-03-23T04:48:47;10.90;1.00
18807;DHT22;9531;52.030;4.380;2023-03-23T04:51:14;10.80;1.00
18807;DHT22;9531;52.030;4.380;2023-03-23T04:53:41;10.80;1.00
18807;DHT22;9531;52.030;4.380;2023-03-23T04:56:08;10.90;1.00
18807;DHT22;9531;52.030;4.380;2023-03-23T04:58:35;10.80;1.00
18807;DHT22;9531;52.030;4.380;2023-03-23T05:01:03;10.80;1.00
18807;DHT22;9531;52.030;4.380;2023-03-23T05:03:30;10.80;1.00
18807;DHT22;9531;52.030;4.380;2023-03-23T05:06:01;10.80;1.00
18807;DHT22;9531;52.030;4.380;2023-03-23T05:08:28;10.80;1.00
18807;DHT22;9531;52.030;4.380;2023-03-23T05:10:58;10.80;1.00
18807;DHT22;9531;52.030;4.380;2023-03-23T05:13:27;10.80;1.00
18807;DHT22;9531;52.030;4.380;2023-03-23T05:15:54;10.80;1.00
18807;DHT22;9531;52.030;4.380;2023-03-23T05:18:23;10.70;1.00
18807;DHT22;9531;52.030;4.380;2023-03-23T05:20:51;10.80;1.00
18807;DHT22;9531;52.030;4.380;2023-03-23T05:23:19;10.70;1.00
18807;DHT22;9531;52.030;4.380;2023-03-23T05:25:53;10.70;1.00
18807;DHT22;9531;52.030;4.380;2023-03-23T05:28:20;10.70;1.00
18807;DHT22;9531;52.030;4.380;2023-03-23T05:30:47;10.70;1.00
18807;DHT22;9531;52.030;4.380;2023-03-23T05:33:15;10.70;1.00
18807;DHT22;9531;52.030;4.380;2023-03-23T05:35:44;10.70;1.00
18807;DHT22;9531;52.030;4.380;2023-03-23T05:38:13;10.70;1.00
18807;DHT22;9531;52.030;4.380;2023-03-23T05:40:41;10.70;1.00
18807;DHT22;9531;52.030;4.380;2023-03-23T05:43:09;10.70;1.00
18807;DHT22;9531;52.030;4.380;2023-03-23T05:45:36;10.60;1.00
18807;DHT22;9531;52.030;4.380;2023-03-23T05:48:03;10.70;1.00
18807;DHT22;9531;52.030;4.380;2023-03-23T05:50:30;10.60;1.00
18807;DHT22;9531;52.030;4.380;2023-03-23T05:52:58;10.60;1.00
18807;DHT22;9531;52.030;4.380;2023-03-23T05:55:26;10.60;1.00
18807;DHT22;9531;52.030;4.380;2023-03-23T05:57:53;10.60;1.00
18807;DHT22;9531;52.030;4.380;2023-03-23T06:00:21;10.60;1.00
18807;DHT22;9531;52.030;4.380;2023-03-23T06:02:49;10.60;1.00
18807;DHT22;9531;52.030;4.380;2023-03-23T06:05:17;10.60;1.00
18807;DHT22;9531;52.030;4.380;2023-03-23T06:07:45;10.70;1.00
18807;DHT22;9531;52.030;4.380;2023-03-23T06:10:13;10.60;1.00
18807;DHT22;9531;52.030;4.380;2023-03-23T06:12:42;10.60;1.00
18807;DHT22;9531;52.030;4.380;2023-03-23T06:15:09;10.60;1.00
18807;DHT22;9531;52.030;4.380;2023-03-23T06:17:38;10.60;1.00
18807;DHT22;9531;52.030;4.380;2023-03-23T06:20:07;10.60;1.00
18807;DHT22;9531;52.030;4.380;2023-03-23T06:22:36;10.70;1.00
18807;DHT22;9531;52.030;4.380;2023-03-23T06:25:04;10.70;1.00
18807;DHT22;9531;52.030;4.380;2023-03-23T06:27:33;10.60;1.00
18807;DHT22;9531;52.030;4.380;2023-03-23T06:30:01;10.60;1.00
18807;DHT22;9531;52.030;4.380;2023-03-23T06:32:31;10.70;1.00
18807;DHT22;9531;52.030;4.380;2023-03-23T06:34:59;10.70;1.00
18807;DHT22;9531;52.030;4.380;2023-03-23T06:37:26;10.60;1.00
18807;DHT22;9531;52.030;4.380;2023-03-23T06:39:53;10.70;1.00
18807;DHT22;9531;52.030;4.380;2023-03-23T06:42:22;10.60;1.40
18807;DHT22;9531;52.030;4.380;2023-03-23T06:44:51;10.60;1.40
18807;DHT22;9531;52.030;4.380;2023-03-23T06:47:18;10.60;99.90
18807;DHT22;9531;52.030;4.380;2023-03-23T06:49:46;10.70;99.90
18807;DHT22;9531;52.030;4.380;2023-03-23T06:52:14;10.70;99.90
18807;DHT22;9531;52.030;4.380;2023-03-23T06:54:41;10.60;99.90
18807;DHT22;9531;52.030;4.380;2023-03-23T06:57:08;10.60;99.90
18807;DHT22;9531;52.030;4.380;2023-03-23T06:59:35;10.60;99.90
18807;DHT22;9531;52.030;4.380;2023-03-23T07:02:03;10.60;99.90
18807;DHT22;9531;52.030;4.380;2023-03-23T07:04:32;10.60;99.90
18807;DHT22;9531;52.030;4.380;2023-03-23T07:06:59;10.60;99.90
18807;DHT22;9531;52.030;4.380;2023-03-23T07:09:27;10.70;99.90
18807;DHT22;9531;52.030;4.380;2023-03-23T07:11:54;10.60;99.90
18807;DHT22;9531;52.030;4.380;2023-03-23T07:14:21;10.70;99.90
18807;DHT22;9531;52.030;4.380;2023-03-23T07:16:48;10.60;99.90
18807;DHT22;9531;52.030;4.380;2023-03-23T07:19:17;10.70;99.90
18807;DHT22;9531;52.030;4.380;2023-03-23T07:21:44;10.70;99.90
18807;DHT22;9531;52.030;4.380;2023-03-23T07:24:11;10.70;99.90
18807;DHT22;9531;52.030;4.380;2023-03-23T07:26:39;10.70;99.90
18807;DHT22;9531;52.030;4.380;2023-03-23T07:29:07;10.70;99.90
18807;DHT22;9531;52.030;4.380;2023-03-23T07:31:34;10.80;99.90
18807;DHT22;9531;52.030;4.380;2023-03-23T07:34:02;10.80;99.90
18807;DHT22;9531;52.030;4.380;2023-03-23T07:36:30;10.80;99.90
18807;DHT22;9531;52.030;4.380;2023-03-23T07:38:58;10.90;99.90
18807;DHT22;9531;52.030;4.380;2023-03-23T07:41:25;10.90;99.90
18807;DHT22;9531;52.030;4.380;2023-03-23T07:43:52;11.00;99.90
18807;DHT22;9531;52.030;4.380;2023-03-23T07:46:19;11.10;99.90
18807;DHT22;9531;52.030;4.380;2023-03-23T07:48:46;11.40;99.90
18807;DHT22;9531;52.030;4.380;2023-03-23T07:51:14;11.70;99.90
18807;DHT22;9531;52.030;4.380;2023-03-23T07:53:44;12.10;99.90
18807;DHT22;9531;52.030;4.380;2023-03-23T07:56:13;12.30;99.90
18807;DHT22;9531;52.030;4.380;2023-03-23T07:58:44;12.40;99.90
18807;DHT22;9531;52.030;4.380;2023-03-23T08:01:12;12.50;99.90
18807;DHT22;9531;52.030;4.380;2023-03-23T08:03:39;12.50;99.90
18807;DHT22;9531;52.030;4.380;2023-03-23T08:06:07;12.70;99.90
18807;DHT22;9531;52.030;4.380;2023-03-23T08:08:35;12.90;99.90
18807;DHT22;9531;52.030;4.380;2023-03-23T08:11:04;13.20;99.90
18807;DHT22;9531;52.030;4.380;2023-03-23T08:13:32;13.50;99.90
18807;DHT22;9531;52.030;4.380;2023-03-23T08:16:01;13.80;99.90
18807;DHT22;9531;52.030;4.380;2023-03-23T08:18:29;14.10;99.90
18807;DHT22;9531;52.030;4.380;2023-03-23T08:20:56;14.40;99.90
18807;DHT22;9531;52.030;4.380;2023-03-23T08:23:24;14.60;99.90
18807;DHT22;9531;52.030;4.380;2023-03-23T08:25:51;14.70;99.90
18807;DHT22;9531;52.030;4.380;2023-03-23T08:28:20;14.80;99.90
18807;DHT22;9531;52.030;4.380;2023-03-23T08:30:48;15.00;99.90
18807;DHT22;9531;52.030;4.380;2023-03-23T08:33:16;15.30;99.90
18807;DHT22;9531;52.030;4.380;2023-03-23T08:35:43;15.60;99.90
18807;DHT22;9531;52.030;4.380;2023-03-23T08:38:11;15.70;99.90
18807;DHT22;9531;52.030;4.380;2023-03-23T08:40:38;16.00;99.90
18807;DHT22;9531;52.030;4.380;2023-03-23T08:43:05;16.10;99.90
18807;DHT22;9531;52.030;4.380;2023-03-23T08:45:35;16.20;99.90
18807;DHT22;9531;52.030;4.380;2023-03-23T08:48:03;16.30;99.90
18807;DHT22;9531;52.030;4.380;2023-03-23T08:50:30;16.40;99.90
18807;DHT22;9531;52.030;4.380;2023-03-23T08:52:57;16.50;99.90
18807;DHT22;9531;52.030;4.380;2023-03-23T08:55:26;16.50;99.90
18807;DHT22;9531;52.030;4.380;2023-03-23T08:57:54;16.60;99.90
18807;DHT22;9531;52.030;4.380;2023-03-23T09:00:22;16.50;99.90
18807;DHT22;9531;52.030;4.380;2023-03-23T09:02:53;16.60;99.90
18807;DHT22;9531;52.030;4.380;2023-03-23T09:05:23;16.70;99.90
18807;DHT22;9531;52.030;4.380;2023-03-23T09:07:52;16.60;99.90
18807;DHT22;9531;52.030;4.380;2023-03-23T09:10:21;16.70;99.90
18807;DHT22;9531;52.030;4.380;2023-03-23T09:12:51;16.80;99.90
18807;DHT22;9531;52.030;4.380;2023-03-23T09:15:23;16.90;99.90
18807;DHT22;9531;52.030;4.380;2023-03-23T09:17:53;17.00;99.90
18807;DHT22;9531;52.030;4.380;2023-03-23T09:20:24;17.20;99.90
18807;DHT22;9531;52.030;4.380;2023-03-23T09:22:53;17.40;99.90
18807;DHT22;9531;52.030;4.380;2023-03-23T09:25:22;17.70;99.90
18807;DHT22;9531;52.030;4.380;2023-03-23T09:27:52;17.80;99.90
18807;DHT22;9531;52.030;4.380;2023-03-23T09:30:23;17.90;99.90
18807;DHT22;9531;52.030;4.380;2023-03-23T09:32:50;18.00;99.90
18807;DHT22;9531;52.030;4.380;2023-03-23T09:35:20;18.10;99.90
18807;DHT22;9531;52.030;4.380;2023-03-23T09:37:49;18.00;99.90
18807;DHT22;9531;52.030;4.380;2023-03-23T09:40:19;18.10;99.90
18807;DHT22;9531;52.030;4.380;2023-03-23T09:45:48;18.50;99.90
18807;DHT22;9531;52.030;4.380;2023-03-23T09:48:31;18.60;99.90
18807;DHT22;9531;52.030;4.380;2023-03-23T09:51:04;18.60;99.90
18807;DHT22;9531;52.030;4.380;2023-03-23T09:53:37;18.60;99.90
18807;DHT22;9531;52.030;4.380;2023-03-23T09:56:10;18.70;99.90
18807;DHT22;9531;52.030;4.380;2023-03-23T09:58:44;18.80;99.90
18807;DHT22;9531;52.030;4.380;2023-03-23T10:01:17;19.00;99.90
18807;DHT22;9531;52.030;4.380;2023-03-23T10:03:47;19.10;99.90
18807;DHT22;9531;52.030;4.380;2023-03-23T10:06:17;19.20;99.90
18807;DHT22;9531;52.030;4.380;2023-03-23T10:08:47;19.60;99.90
18807;DHT22;9531;52.030;4.380;2023-03-23T10:11:24;19.80;99.90
18807;DHT22;9531;52.030;4.380;2023-03-23T10:14:06;19.70;99.90
18807;DHT22;9531;52.030;4.380;2023-03-23T10:16:38;19.60;99.90
18807;DHT22;9531;52.030;4.380;2023-03-23T10:19:11;19.30;99.90
18807;DHT22;9531;52.030;4.380;2023-03-23T10:21:42;19.20;99.90
18807;DHT22;9531;52.030;4.380;2023-03-23T10:24:15;19.00;99.90
18807;DHT22;9531;52.030;4.380;2023-03-23T10:26:50;18.80;99.90
18807;DHT22;9531;52.030;4.380;2023-03-23T10:29:22;18.70;99.90
18807;DHT22;9531;52.030;4.380;2023-03-23T10:31:55;18.60;99.90
18807;DHT22;9531;52.030;4.380;2023-03-23T10:34:29;18.90;99.90
18807;DHT22;9531;52.030;4.380;2023-03-23T10:37:04;19.00;99.90
18807;DHT22;9531;52.030;4.380;2023-03-23T10:39:41;19.00;99.90
18807;DHT22;9531;52.030;4.380;2023-03-23T10:42:10;19.20;99.90
18807;DHT22;9531;52.030;4.380;2023-03-23T10:44:37;19.30;99.90
18807;DHT22;9531;52.030;4.380;2023-03-23T10:47:06;19.40;99.90
18807;DHT22;9531;52.030;4.380;2023-03-23T10:49:37;19.50;99.90
18807;DHT22;9531;52.030;4.380;2023-03-23T10:52:25;19.60;99.90
18807;DHT22;9531;52.030;4.380;2023-03-23T10:54:56;19.70;99.90
18807;DHT22;9531;52.030;4.380;2023-03-23T10:57:25;19.70;99.90
18807;DHT22;9531;52.030;4.380;2023-03-23T11:00:06;19.80;99.90
18807;DHT22;9531;52.030;4.380;2023-03-23T11:02:39;19.90;99.90
18807;DHT22;9531;52.030;4.380;2023-03-23T11:05:15;19.90;99.90
18807;DHT22;9531;52.030;4.380;2023-03-23T11:07:50;20.10;99.90
18807;DHT22;9531;52.030;4.380;2023-03-23T11:10:22;20.10;99.90
18807;DHT22;9531;52.030;4.380;2023-03-23T11:12:51;20.10;99.90
18807;DHT22;9531;52.030;4.380;2023-03-23T11:15:30;20.10;99.90
18807;DHT22;9531;52.030;4.380;2023-03-23T11:17:59;20.10;99.90
18807;DHT22;9531;52.030;4.380;2023-03-23T11:20:28;20.00;99.90
18807;DHT22;9531;52.030;4.380;2023-03-23T11:22:58;20.00;99.90
18807;DHT22;9531;52.030;4.380;2023-03-23T11:25:25;20.10;99.90
18807;DHT22;9531;52.030;4.380;2023-03-23T11:27:53;20.20;99.90
18807;DHT22;9531;52.030;4.380;2023-03-23T11:30:24;20.30;99.90
18807;DHT22;9531;52.030;4.380;2023-03-23T11:32:53;20.60;99.90
18807;DHT22;9531;52.030;4.380;2023-03-23T11:35:25;20.70;99.90
18807;DHT22;9531;52.030;4.380;2023-03-23T11:37:54;20.80;99.90
18807;DHT22;9531;52.030;4.380;2023-03-23T11:40:25;20.70;99.90
18807;DHT22;9531;52.030;4.380;2023-03-23T11:43:08;20.40;99.90
18807;DHT22;9531;52.030;4.380;2023-03-23T11:45:38;20.20;99.90
18807;DHT22;9531;52.030;4.380;2023-03-23T11:48:18;20.00;99.90
18807;DHT22;9531;52.030;4.380;2023-03-23T11:50:51;19.70;99.90
18807;DHT22;9531;52.030;4.380;2023-03-23T11:53:35;19.40;99.90
18807;DHT22;9531;52.030;4.380;2023-03-23T11:56:13;19.20;99.90
18807;DHT22;9531;52.030;4.380;2023-03-23T11:58:42;19.10;99.90
18807;DHT22;9531;52.030;4.380;2023-03-23T12:01:16;19.10;99.90
18807;DHT22;9531;52.030;4.380;2023-03-23T12:06:44;18.80;99.90
18807;DHT22;9531;52.030;4.380;2023-03-23T12:09:21;18.70;99.90
18807;DHT22;9531;52.030;4.380;2023-03-23T12:11:59;18.60;99.90
18807;DHT22;9531;52.030;4.380;2023-03-23T12:14:35;18.70;99.90
18807;DHT22;9531;52.030;4.380;2023-03-23T12:17:15;18.70;99.90
18807;DHT22;9531;52.030;4.380;2023-03-23T12:19:52;18.80;99.90
18807;DHT22;9531;52.030;4.380;2023-03-23T12:22:32;18.80;99.90
18807;DHT22;9531;52.030;4.380;2023-03-23T12:25:15;18.90;99.90
18807;DHT22;9531;52.030;4.380;2023-03-23T12:27:48;19.00;99.90
18807;DHT22;9531;52.030;4.380;2023-03-23T12:30:24;19.10;99.90
18807;DHT22;9531;52.030;4.380;2023-03-23T12:35:52;19.20;99.90
18807;DHT22;9531;52.030;4.380;2023-03-23T12:41:36;19.00;99.90
18807;DHT22;9531;52.030;4.380;2023-03-23T12:44:07;18.80;99.90
18807;DHT22;9531;52.030;4.380;2023-03-23T12:47:16;18.50;99.90
18807;DHT22;9531;52.030;4.380;2023-03-23T12:49:48;18.40;99.90
18807;DHT22;9531;52.030;4.380;2023-03-23T12:52:23;18.20;99.90
18807;DHT22;9531;52.030;4.380;2023-03-23T12:54:57;18.20;99.90
18807;DHT22;9531;52.030;4.380;2023-03-23T12:57:29;18.30;99.90
18807;DHT22;9531;52.030;4.380;2023-03-23T13:00:06;18.60;99.90
18807;DHT22;9531;52.030;4.380;2023-03-23T13:02:40;18.80;99.90
18807;DHT22;9531;52.030;4.380;2023-03-23T13:05:27;19.10;99.90
18807;DHT22;9531;52.030;4.380;2023-03-23T13:08:01;19.40;99.90
18807;DHT22;9531;52.030;4.380;2023-03-23T13:10:33;19.70;99.90
18807;DHT22;9531;52.030;4.380;2023-03-23T13:13:02;19.90;99.90
18807;DHT22;9531;52.030;4.380;2023-03-23T13:15:37;20.20;99.90
18807;DHT22;9531;52.030;4.380;2023-03-23T13:18:14;20.40;99.90
18807;DHT22;9531;52.030;4.380;2023-03-23T13:20:52;20.70;99.90
18807;DHT22;9531;52.030;4.380;2023-03-23T13:23:22;20.80;99.90
18807;DHT22;9531;52.030;4.380;2023-03-23T13:25:54;21.00;99.90
18807;DHT22;9531;52.030;4.380;2023-03-23T13:28:25;21.00;99.90
18807;DHT22;9531;52.030;4.380;2023-03-23T13:31:00;21.00;99.90
18807;DHT22;9531;52.030;4.380;2023-03-23T13:33:32;21.10;99.90
18807;DHT22;9531;52.030;4.380;2023-03-23T13:36:08;21.20;99.90
18807;DHT22;9531;52.030;4.380;2023-03-23T13:38:36;21.20;99.90
18807;DHT22;9531;52.030;4.380;2023-03-23T13:41:09;21.30;99.90
18807;DHT22;9531;52.030;4.380;2023-03-23T13:43:39;21.40;99.90
18807;DHT22;9531;52.030;4.380;2023-03-23T13:46:11;21.40;99.90
18807;DHT22;9531;52.030;4.380;2023-03-23T13:48:43;21.50;99.90
18807;DHT22;9531;52.030;4.380;2023-03-23T13:51:34;21.50;99.90
18807;DHT22;9531;52.030;4.380;2023-03-23T13:54:23;21.60;99.90
18807;DHT22;9531;52.030;4.380;2023-03-23T13:56:55;21.60;99.90
18807;DHT22;9531;52.030;4.380;2023-03-23T13:59:35;21.70;99.90
18807;DHT22;9531;52.030;4.380;2023-03-23T14:02:32;21.70;99.90
18807;DHT22;9531;52.030;4.380;2023-03-23T14:05:11;21.80;99.90
18807;DHT22;9531;52.030;4.380;2023-03-23T14:07:56;21.80;99.90
18807;DHT22;9531;52.030;4.380;2023-03-23T14:10:31;21.70;99.90
18807;DHT22;9531;52.030;4.380;2023-03-23T14:13:00;21.70;99.90
18807;DHT22;9531;52.030;4.380;2023-03-23T14:15:29;21.70;99.90
18807;DHT22;9531;52.030;4.380;2023-03-23T14:18:01;21.60;99.90
18807;DHT22;9531;52.030;4.380;2023-03-23T14:20:32;21.50;99.90
18807;DHT22;9531;52.030;4.380;2023-03-23T14:23:00;21.40;99.90
18807;DHT22;9531;52.030;4.380;2023-03-23T14:25:30;21.30;99.90
18807;DHT22;9531;52.030;4.380;2023-03-23T14:27:58;21.30;99.90
18807;DHT22;9531;52.030;4.380;2023-03-23T14:30:27;21.20;99.90
18807;DHT22;9531;52.030;4.380;2023-03-23T14:33:05;21.00;99.90
18807;DHT22;9531;52.030;4.380;2023-03-23T14:35:36;20.90;99.90
18807;DHT22;9531;52.030;4.380;2023-03-23T14:38:04;20.70;99.90
18807;DHT22;9531;52.030;4.380;2023-03-23T14:40:39;20.60;99.90
18807;DHT22;9531;52.030;4.380;2023-03-23T14:43:06;20.40;99.90
18807;DHT22;9531;52.030;4.380;2023-03-23T14:45:36;20.30;99.90
18807;DHT22;9531;52.030;4.380;2023-03-23T14:48:06;20.20;99.90
18807;DHT22;9531;52.030;4.380;2023-03-23T14:50:38;20.10;99.90
18807;DHT22;9531;52.030;4.380;2023-03-23T14:53:12;20.10;99.90
18807;DHT22;9531;52.030;4.380;2023-03-23T14:55:42;20.00;99.90
18807;DHT22;9531;52.030;4.380;2023-03-23T14:58:14;20.00;99.90
18807;DHT22;9531;52.030;4.380;2023-03-23T15:00:45;20.00;99.90
18807;DHT22;9531;52.030;4.380;2023-03-23T15:03:17;20.10;99.90
18807;DHT22;9531;52.030;4.380;2023-03-23T15:05:47;20.00;99.90
18807;DHT22;9531;52.030;4.380;2023-03-23T15:08:21;20.00;99.90
18807;DHT22;9531;52.030;4.380;2023-03-23T15:10:56;20.10;99.90
18807;DHT22;9531;52.030;4.380;2023-03-23T15:13:25;20.00;99.90
18807;DHT22;9531;52.030;4.380;2023-03-23T15:16:01;19.90;99.90
18807;DHT22;9531;52.030;4.380;2023-03-23T15:18:33;19.90;99.90
18807;DHT22;9531;52.030;4.380;2023-03-23T15:21:09;19.90;99.90
18807;DHT22;9531;52.030;4.380;2023-03-23T15:23:42;19.80;99.90
18807;DHT22;9531;52.030;4.380;2023-03-23T15:26:28;19.90;99.90
18807;DHT22;9531;52.030;4.380;2023-03-23T15:29:10;19.90;99.90
18807;DHT22;9531;52.030;4.380;2023-03-23T15:31:40;19.80;99.90
18807;DHT22;9531;52.030;4.380;2023-03-23T15:34:19;19.90;99.90
18807;DHT22;9531;52.030;4.380;2023-03-23T15:36:57;19.80;99.90
18807;DHT22;9531;52.030;4.380;2023-03-23T15:39:25;19.80;99.90
18807;DHT22;9531;52.030;4.380;2023-03-23T15:41:54;19.80;99.90
18807;DHT22;9531;52.030;4.380;2023-03-23T15:44:29;19.70;99.90
18807;DHT22;9531;52.030;4.380;2023-03-23T15:47:13;19.60;99.90
18807;DHT22;9531;52.030;4.380;2023-03-23T15:49:43;19.50;99.90
18807;DHT22;9531;52.030;4.380;2023-03-23T15:52:12;19.40;99.90
18807;DHT22;9531;52.030;4.380;2023-03-23T15:54:46;19.40;99.90
18807;DHT22;9531;52.030;4.380;2023-03-23T15:57:14;19.20;99.90
18807;DHT22;9531;52.030;4.380;2023-03-23T15:59:42;19.10;99.90
18807;DHT22;9531;52.030;4.380;2023-03-23T16:02:21;19.00;99.90
18807;DHT22;9531;52.030;4.380;2023-03-23T16:04:51;18.80;99.90
18807;DHT22;9531;52.030;4.380;2023-03-23T16:07:21;18.80;99.90
18807;DHT22;9531;52.030;4.380;2023-03-23T16:09:49;18.60;99.90
18807;DHT22;9531;52.030;4.380;2023-03-23T16:12:16;18.50;99.90
18807;DHT22;9531;52.030;4.380;2023-03-23T16:14:44;18.40;99.90
18807;DHT22;9531;52.030;4.380;2023-03-23T16:17:15;18.20;99.90
18807;DHT22;9531;52.030;4.380;2023-03-23T16:19:43;18.20;99.90
18807;DHT22;9531;52.030;4.380;2023-03-23T16:22:12;18.10;99.90
18807;DHT22;9531;52.030;4.380;2023-03-23T16:24:39;18.00;99.90
18807;DHT22;9531;52.030;4.380;2023-03-23T16:27:07;17.80;99.90